sensor_id;sensor_type;location;lat;lon;timestamp;temperature;humidity
20174;DHT22;10246;50.620;7.232;2023-08-06T00:02:25;17.60;5.20
20174;DHT22;10246;50.620;7.232;2023-08-06T00:04:52;17.60;5.20
20174;DHT22;10246;50.620;7.232;2023-08-06T00:07:19;17.50;5.60
20174;DHT22;10246;50.620;7.232;2023-08-06T00:09:46;17.50;6.30
20174;DHT22;10246;50.620;7.232;2023-08-06T00:12:12;17.50;6.40
20174;DHT22;10246;50.620;7.232;2023-08-06T00:14:40;17.40;6.10
20174;DHT22;10246;50.620;7.232;2023-08-06T00:17:08;17.40;6.80
20174;DHT22;10246;50.620;7.232;2023-08-06T00:19:34;17.30;7.00
20174;DHT22;10246;50.620;7.232;2023-08-06T00:22:03;17.30;7.20
20174;DHT22;10246;50.620;7.232;2023-08-06T00:24:30;17.40;7.20
20174;DHT22;10246;50.620;7.232;2023-08-06T00:26:57;17.30;7.20
20174;DHT22;10246;50.620;7.232;2023-08-06T00:29:23;17.20;7.60
20174;DHT22;10246;50.620;7.232;2023-08-06T00:31:52;17.20;7.40
20174;DHT22;10246;50.620;7.232;2023-08-06T00:34:21;17.30;7.50
20174;DHT22;10246;50.620;7.232;2023-08-06T00:36:49;17.30;7.20
20174;DHT22;10246;50.620;7.232;2023-08-06T00:39:16;17.20;7.40
20174;DHT22;10246;50.620;7.232;2023-08-06T00:41:44;17.20;7.70
20174;DHT22;10246;50.620;7.232;2023-08-06T00:58:05;17.10;8.00
20174;DHT22;10246;50.620;7.232;2023-08-06T01:00:50;17.20;8.00
20174;DHT22;10246;50.620;7.232;2023-08-06T01:03:20;17.20;7.80
20174;DHT22;10246;50.620;7.232;2023-08-06T01:05:49;17.20;8.60
20174;DHT22;10246;50.620;7.232;2023-08-06T01:08:28;17.20;8.30
20174;DHT22;10246;50.620;7.232;2023-08-06T01:11:08;17.20;8.50
20174;DHT22;10246;50.620;7.232;2023-08-06T01:13:42;17.20;8.70
20174;DHT22;10246;50.620;7.232;2023-08-06T01:16:15;17.20;8.60
20174;DHT22;10246;50.620;7.232;2023-08-06T01:18:43;17.20;8.70
20174;DHT22;10246;50.620;7.232;2023-08-06T01:21:13;17.20;8.60
20174;DHT22;10246;50.620;7.232;2023-08-06T01:23:41;17.30;9.00
20174;DHT22;10246;50.620;7.232;2023-08-06T01:26:19;17.20;9.00
20174;DHT22;10246;50.620;7.232;2023-08-06T01:29:06;17.20;8.80
20174;DHT22;10246;50.620;7.232;2023-08-06T01:31:39;17.10;8.80
20174;DHT22;10246;50.620;7.232;2023-08-06T01:34:25;17.10;8.90
20174;DHT22;10246;50.620;7.232;2023-08-06T01:36:57;17.10;8.90
20174;DHT22;10246;50.620;7.232;2023-08-06T01:39:25;17.10;8.70
20174;DHT22;10246;50.620;7.232;2023-08-06T01:41:55;17.10;8.50
20174;DHT22;10246;50.620;7.232;2023-08-06T01:44:25;17.00;8.80
20174;DHT22;10246;50.620;7.232;2023-08-06T01:46:54;17.00;9.40
20174;DHT22;10246;50.620;7.232;2023-08-06T01:49:25;17.00;9.40
20174;DHT22;10246;50.620;7.232;2023-08-06T01:51:55;17.00;9.10
20174;DHT22;10246;50.620;7.232;2023-08-06T01:54:23;16.90;8.90
20174;DHT22;10246;50.620;7.232;2023-08-06T01:56:51;16.90;9.30
20174;DHT22;10246;50.620;7.232;2023-08-06T01:59:28;16.90;9.30
20174;DHT22;10246;50.620;7.232;2023-08-06T02:01:57;16.90;9.30
20174;DHT22;10246;50.620;7.232;2023-08-06T02:04:25;16.80;9.10
20174;DHT22;10246;50.620;7.232;2023-08-06T02:07:00;16.80;9.50
20174;DHT22;10246;50.620;7.232;2023-08-06T02:09:29;16.70;9.80
20174;DHT22;10246;50.620;7.232;2023-08-06T02:11:57;16.70;10.00
20174;DHT22;10246;50.620;7.232;2023-08-06T02:14:24;16.70;9.90
20174;DHT22;10246;50.620;7.232;2023-08-06T02:16:51;16.70;10.10
20174;DHT22;10246;50.620;7.232;2023-08-06T02:19:21;16.60;10.00
20174;DHT22;10246;50.620;7.232;2023-08-06T02:21:49;16.70;10.10
20174;DHT22;10246;50.620;7.232;2023-08-06T02:24:24;16.60;10.40
20174;DHT22;10246;50.620;7.232;2023-08-06T02:26:59;16.50;10.60
20174;DHT22;10246;50.620;7.232;2023-08-06T02:29:28;16.60;10.50
20174;DHT22;10246;50.620;7.232;2023-08-06T02:31:58;16.60;10.60
20174;DHT22;10246;50.620;7.232;2023-08-06T02:34:28;16.50;10.70
20174;DHT22;10246;50.620;7.232;2023-08-06T02:37:02;16.50;10.60
20174;DHT22;10246;50.620;7.232;2023-08-06T02:39:53;16.50;10.50
20174;DHT22;10246;50.620;7.232;2023-08-06T02:42:29;16.50;10.50
20174;DHT22;10246;50.620;7.232;2023-08-06T02:44:58;16.50;10.60
20174;DHT22;10246;50.620;7.232;2023-08-06T02:47:42;16.50;10.30
20174;DHT22;10246;50.620;7.232;2023-08-06T02:50:10;16.50;10.10
20174;DHT22;10246;50.620;7.232;2023-08-06T02:52:40;16.60;10.00
20174;DHT22;10246;50.620;7.232;2023-08-06T02:55:10;16.60;9.50
20174;DHT22;10246;50.620;7.232;2023-08-06T02:57:52;16.60;9.00
20174;DHT22;10246;50.620;7.232;2023-08-06T03:00:30;16.60;8.90
20174;DHT22;10246;50.620;7.232;2023-08-06T03:03:11;16.60;9.00
20174;DHT22;10246;50.620;7.232;2023-08-06T03:05:40;16.70;9.10
20174;DHT22;10246;50.620;7.232;2023-08-06T03:08:08;16.70;9.90
20174;DHT22;10246;50.620;7.232;2023-08-06T03:10:58;16.60;9.10
20174;DHT22;10246;50.620;7.232;2023-08-06T03:13:44;16.60;9.50
20174;DHT22;10246;50.620;7.232;2023-08-06T03:16:22;16.60;9.50
20174;DHT22;10246;50.620;7.232;2023-08-06T03:19:02;16.70;8.80
20174;DHT22;10246;50.620;7.232;2023-08-06T03:21:32;16.60;8.40
20174;DHT22;10246;50.620;7.232;2023-08-06T03:24:06;16.70;8.70
20174;DHT22;10246;50.620;7.232;2023-08-06T03:26:42;16.60;8.40
20174;DHT22;10246;50.620;7.232;2023-08-06T03:29:13;16.70;8.80
20174;DHT22;10246;50.620;7.232;2023-08-06T03:31:45;16.70;8.90
20174;DHT22;10246;50.620;7.232;2023-08-06T03:34:13;16.70;9.20
20174;DHT22;10246;50.620;7.232;2023-08-06T03:36:42;16.70;9.00
20174;DHT22;10246;50.620;7.232;2023-08-06T03:39:09;16.70;9.20
20174;DHT22;10246;50.620;7.232;2023-08-06T03:41:40;16.70;9.20
20174;DHT22;10246;50.620;7.232;2023-08-06T03:44:08;16.80;8.90
20174;DHT22;10246;50.620;7.232;2023-08-06T03:46:39;16.70;8.60
20174;DHT22;10246;50.620;7.232;2023-08-06T03:49:19;16.70;9.10
20174;DHT22;10246;50.620;7.232;2023-08-06T03:51:46;16.70;9.10
20174;DHT22;10246;50.620;7.232;2023-08-06T03:54:13;16.70;9.20
20174;DHT22;10246;50.620;7.232;2023-08-06T03:56:43;16.70;9.60
20174;DHT22;10246;50.620;7.232;2023-08-06T03:59:10;16.70;9.70
20174;DHT22;10246;50.620;7.232;2023-08-06T04:01:38;16.70;10.40
20174;DHT22;10246;50.620;7.232;2023-08-06T04:04:08;16.70;9.90
20174;DHT22;10246;50.620;7.232;2023-08-06T04:06:40;16.70;9.90
20174;DHT22;10246;50.620;7.232;2023-08-06T04:09:07;16.60;10.30
20174;DHT22;10246;50.620;7.232;2023-08-06T04:11:35;16.60;10.80
20174;DHT22;10246;50.620;7.232;2023-08-06T04:14:07;16.70;10.80
20174;DHT22;10246;50.620;7.232;2023-08-06T04:16:34;16.80;10.50
20174;DHT22;10246;50.620;7.232;2023-08-06T04:19:02;16.80;10.60
20174;DHT22;10246;50.620;7.232;2023-08-06T04:21:29;16.70;10.70
20174;DHT22;10246;50.620;7.232;2023-08-06T04:23:56;16.70;10.70
20174;DHT22;10246;50.620;7.232;2023-08-06T04:26:22;16.70;10.20
20174;DHT22;10246;50.620;7.232;2023-08-06T04:28:49;16.70;10.60
20174;DHT22;10246;50.620;7.232;2023-08-06T04:31:17;16.70;10.60
20174;DHT22;10246;50.620;7.232;2023-08-06T04:33:44;16.70;10.90
20174;DHT22;10246;50.620;7.232;2023-08-06T04:36:11;16.70;11.30
20174;DHT22;10246;50.620;7.232;2023-08-06T04:38:38;16.70;10.90
20174;DHT22;10246;50.620;7.232;2023-08-06T04:41:06;16.70;10.90
20174;DHT22;10246;50.620;7.232;2023-08-06T04:43:35;16.70;11.10
20174;DHT22;10246;50.620;7.232;2023-08-06T04:46:01;16.70;12.10
20174;DHT22;10246;50.620;7.232;2023-08-06T04:48:30;16.70;12.80
20174;DHT22;10246;50.620;7.232;2023-08-06T04:50:56;16.70;13.30
20174;DHT22;10246;50.620;7.232;2023-08-06T04:53:23;16.70;14.10
20174;DHT22;10246;50.620;7.232;2023-08-06T04:55:53;16.60;15.00
20174;DHT22;10246;50.620;7.232;2023-08-06T04:58:19;16.60;15.90
20174;DHT22;10246;50.620;7.232;2023-08-06T05:00:46;16.60;16.40
20174;DHT22;10246;50.620;7.232;2023-08-06T05:03:13;16.60;16.60
20174;DHT22;10246;50.620;7.232;2023-08-06T05:05:41;16.60;16.70
20174;DHT22;10246;50.620;7.232;2023-08-06T05:08:14;16.60;16.60
20174;DHT22;10246;50.620;7.232;2023-08-06T05:10:42;16.60;16.60
20174;DHT22;10246;50.620;7.232;2023-08-06T05:13:09;16.70;16.70
20174;DHT22;10246;50.620;7.232;2023-08-06T05:15:36;16.60;17.10
20174;DHT22;10246;50.620;7.232;2023-08-06T05:18:02;16.70;18.10
20174;DHT22;10246;50.620;7.232;2023-08-06T05:20:29;16.60;16.80
20174;DHT22;10246;50.620;7.232;2023-08-06T05:22:57;16.60;16.90
20174;DHT22;10246;50.620;7.232;2023-08-06T05:25:24;16.70;17.10
20174;DHT22;10246;50.620;7.232;2023-08-06T05:27:51;16.60;17.30
20174;DHT22;10246;50.620;7.232;2023-08-06T05:30:19;16.60;17.90
20174;DHT22;10246;50.620;7.232;2023-08-06T05:32:45;16.60;18.20
20174;DHT22;10246;50.620;7.232;2023-08-06T05:35:12;16.60;18.40
20174;DHT22;10246;50.620;7.232;2023-08-06T05:37:39;16.60;19.00
20174;DHT22;10246;50.620;7.232;2023-08-06T05:40:08;16.50;19.40
20174;DHT22;10246;50.620;7.232;2023-08-06T05:42:38;16.50;20.00
20174;DHT22;10246;50.620;7.232;2023-08-06T05:45:12;16.60;20.10
20174;DHT22;10246;50.620;7.232;2023-08-06T05:47:38;16.60;20.30
20174;DHT22;10246;50.620;7.232;2023-08-06T05:50:06;16.60;19.50
20174;DHT22;10246;50.620;7.232;2023-08-06T05:52:34;16.60;19.40
20174;DHT22;10246;50.620;7.232;2023-08-06T05:55:04;16.60;19.80
20174;DHT22;10246;50.620;7.232;2023-08-06T05:57:33;16.70;19.60
20174;DHT22;10246;50.620;7.232;2023-08-06T05:59:59;16.60;20.50
20174;DHT22;10246;50.620;7.232;2023-08-06T06:02:26;16.60;21.40
20174;DHT22;10246;50.620;7.232;2023-08-06T06:04:53;16.60;20.80
20174;DHT22;10246;50.620;7.232;2023-08-06T06:07:20;16.60;21.20
20174;DHT22;10246;50.620;7.232;2023-08-06T06:09:47;16.50;21.10
20174;DHT22;10246;50.620;7.232;2023-08-06T06:12:13;16.50;21.20
20174;DHT22;10246;50.620;7.232;2023-08-06T06:14:41;16.50;21.80
20174;DHT22;10246;50.620;7.232;2023-08-06T06:17:08;16.50;22.20
20174;DHT22;10246;50.620;7.232;2023-08-06T06:19:35;16.50;22.60
20174;DHT22;10246;50.620;7.232;2023-08-06T06:22:02;16.60;22.30
20174;DHT22;10246;50.620;7.232;2023-08-06T06:24:28;16.60;22.00
20174;DHT22;10246;50.620;7.232;2023-08-06T06:26:55;16.60;21.90
20174;DHT22;10246;50.620;7.232;2023-08-06T06:29:22;16.60;21.20
20174;DHT22;10246;50.620;7.232;2023-08-06T06:31:50;16.70;21.50
20174;DHT22;10246;50.620;7.232;2023-08-06T06:34:18;16.70;21.80
20174;DHT22;10246;50.620;7.232;2023-08-06T06:36:44;16.80;21.70
20174;DHT22;10246;50.620;7.232;2023-08-06T06:39:12;16.70;21.30
20174;DHT22;10246;50.620;7.232;2023-08-06T06:41:39;16.80;21.90
20174;DHT22;10246;50.620;7.232;2023-08-06T06:44:07;16.80;20.70
20174;DHT22;10246;50.620;7.232;2023-08-06T06:46:37;16.80;20.60
20174;DHT22;10246;50.620;7.232;2023-08-06T06:49:16;16.90;20.40
20174;DHT22;10246;50.620;7.232;2023-08-06T06:51:50;16.80;20.60
20174;DHT22;10246;50.620;7.232;2023-08-06T06:54:22;16.80;20.50
20174;DHT22;10246;50.620;7.232;2023-08-06T06:56:49;16.90;20.50
20174;DHT22;10246;50.620;7.232;2023-08-06T06:59:16;16.90;20.50
20174;DHT22;10246;50.620;7.232;2023-08-06T07:01:46;16.90;20.70
20174;DHT22;10246;50.620;7.232;2023-08-06T07:04:13;16.90;20.10
20174;DHT22;10246;50.620;7.232;2023-08-06T07:06:44;17.00;19.90
20174;DHT22;10246;50.620;7.232;2023-08-06T07:09:12;17.00;19.00
20174;DHT22;10246;50.620;7.232;2023-08-06T07:11:38;17.10;19.80
20174;DHT22;10246;50.620;7.232;2023-08-06T07:14:14;17.10;20.40
20174;DHT22;10246;50.620;7.232;2023-08-06T07:16:43;17.10;20.80
20174;DHT22;10246;50.620;7.232;2023-08-06T07:19:10;17.10;21.00
20174;DHT22;10246;50.620;7.232;2023-08-06T07:21:37;17.20;21.80
20174;DHT22;10246;50.620;7.232;2023-08-06T07:24:08;17.30;21.30
20174;DHT22;10246;50.620;7.232;2023-08-06T07:26:36;17.30;20.60
20174;DHT22;10246;50.620;7.232;2023-08-06T07:29:03;17.40;21.10
20174;DHT22;10246;50.620;7.232;2023-08-06T07:31:30;17.40;20.90
20174;DHT22;10246;50.620;7.232;2023-08-06T07:33:57;17.50;19.00
20174;DHT22;10246;50.620;7.232;2023-08-06T07:36:24;17.60;19.80
20174;DHT22;10246;50.620;7.232;2023-08-06T07:38:51;17.60;18.70
20174;DHT22;10246;50.620;7.232;2023-08-06T07:41:23;17.70;17.30
20174;DHT22;10246;50.620;7.232;2023-08-06T07:43:50;17.80;16.80
20174;DHT22;10246;50.620;7.232;2023-08-06T07:46:27;17.80;15.60
20174;DHT22;10246;50.620;7.232;2023-08-06T07:48:53;17.90;17.50
20174;DHT22;10246;50.620;7.232;2023-08-06T07:51:21;18.00;16.10
20174;DHT22;10246;50.620;7.232;2023-08-06T07:53:49;18.00;16.30
20174;DHT22;10246;50.620;7.232;2023-08-06T07:56:16;18.10;13.90
20174;DHT22;10246;50.620;7.232;2023-08-06T07:58:44;18.10;13.80
20174;DHT22;10246;50.620;7.232;2023-08-06T08:01:11;18.20;13.20
20174;DHT22;10246;50.620;7.232;2023-08-06T08:03:38;18.20;13.60
20174;DHT22;10246;50.620;7.232;2023-08-06T08:06:05;18.30;13.00
20174;DHT22;10246;50.620;7.232;2023-08-06T08:08:33;18.30;11.60
20174;DHT22;10246;50.620;7.232;2023-08-06T08:11:03;18.50;10.80
20174;DHT22;10246;50.620;7.232;2023-08-06T08:13:30;18.40;9.20
20174;DHT22;10246;50.620;7.232;2023-08-06T08:15:58;18.50;8.80
20174;DHT22;10246;50.620;7.232;2023-08-06T08:18:25;18.50;7.40
20174;DHT22;10246;50.620;7.232;2023-08-06T08:20:53;18.60;8.00
20174;DHT22;10246;50.620;7.232;2023-08-06T08:23:20;18.60;7.80
20174;DHT22;10246;50.620;7.232;2023-08-06T08:25:47;18.70;8.50
20174;DHT22;10246;50.620;7.232;2023-08-06T08:28:13;18.70;7.10
20174;DHT22;10246;50.620;7.232;2023-08-06T08:30:41;18.80;7.30
20174;DHT22;10246;50.620;7.232;2023-08-06T08:33:11;18.90;6.50
20174;DHT22;10246;50.620;7.232;2023-08-06T08:35:39;18.90;7.80
20174;DHT22;10246;50.620;7.232;2023-08-06T08:38:06;19.00;7.30
20174;DHT22;10246;50.620;7.232;2023-08-06T08:40:33;18.90;5.70
20174;DHT22;10246;50.620;7.232;2023-08-06T08:43:04;18.70;6.90
20174;DHT22;10246;50.620;7.232;2023-08-06T08:45:35;18.80;6.90
20174;DHT22;10246;50.620;7.232;2023-08-06T08:48:06;18.90;5.80
20174;DHT22;10246;50.620;7.232;2023-08-06T08:50:34;19.00;4.40
20174;DHT22;10246;50.620;7.232;2023-08-06T08:53:01;18.80;4.30
20174;DHT22;10246;50.620;7.232;2023-08-06T08:55:31;18.60;4.20
20174;DHT22;10246;50.620;7.232;2023-08-06T08:58:03;18.60;4.20
20174;DHT22;10246;50.620;7.232;2023-08-06T09:00:35;18.60;4.50
20174;DHT22;10246;50.620;7.232;2023-08-06T09:03:19;18.70;4.20
20174;DHT22;10246;50.620;7.232;2023-08-06T09:05:51;18.60;4.10
20174;DHT22;10246;50.620;7.232;2023-08-06T09:08:27;18.80;4.30
20174;DHT22;10246;50.620;7.232;2023-08-06T09:10:54;18.70;4.20
20174;DHT22;10246;50.620;7.232;2023-08-06T09:13:22;18.70;5.50
20174;DHT22;10246;50.620;7.232;2023-08-06T09:15:49;18.70;5.10
20174;DHT22;10246;50.620;7.232;2023-08-06T09:18:25;18.60;6.60
20174;DHT22;10246;50.620;7.232;2023-08-06T09:20:53;18.40;8.60
20174;DHT22;10246;50.620;7.232;2023-08-06T09:23:20;18.20;9.70
20174;DHT22;10246;50.620;7.232;2023-08-06T09:25:47;18.20;10.60
20174;DHT22;10246;50.620;7.232;2023-08-06T09:28:14;18.10;10.80
20174;DHT22;10246;50.620;7.232;2023-08-06T09:30:40;18.00;10.70
20174;DHT22;10246;50.620;7.232;2023-08-06T09:33:08;17.90;12.50
20174;DHT22;10246;50.620;7.232;2023-08-06T09:35:37;17.80;13.70
20174;DHT22;10246;50.620;7.232;2023-08-06T09:38:09;17.80;12.00
20174;DHT22;10246;50.620;7.232;2023-08-06T09:40:38;17.70;11.80
20174;DHT22;10246;50.620;7.232;2023-08-06T09:43:15;17.70;11.50
20174;DHT22;10246;50.620;7.232;2023-08-06T09:45:42;17.70;12.30
20174;DHT22;10246;50.620;7.232;2023-08-06T09:48:09;17.70;11.50
20174;DHT22;10246;50.620;7.232;2023-08-06T09:50:38;17.80;13.20
20174;DHT22;10246;50.620;7.232;2023-08-06T09:53:07;17.80;12.60
20174;DHT22;10246;50.620;7.232;2023-08-06T09:55:34;17.60;12.60
20174;DHT22;10246;50.620;7.232;2023-08-06T09:58:01;17.50;14.50
20174;DHT22;10246;50.620;7.232;2023-08-06T10:00:29;17.20;14.50
20174;DHT22;10246;50.620;7.232;2023-08-06T10:03:01;17.10;14.80
20174;DHT22;10246;50.620;7.232;2023-08-06T10:05:28;17.10;16.30
20174;DHT22;10246;50.620;7.232;2023-08-06T10:07:57;16.90;15.60
20174;DHT22;10246;50.620;7.232;2023-08-06T10:10:31;16.90;16.50
20174;DHT22;10246;50.620;7.232;2023-08-06T10:13:00;16.90;14.70
20174;DHT22;10246;50.620;7.232;2023-08-06T10:15:30;16.80;16.80
20174;DHT22;10246;50.620;7.232;2023-08-06T10:17:58;16.90;16.80
20174;DHT22;10246;50.620;7.232;2023-08-06T10:20:26;16.90;15.30
20174;DHT22;10246;50.620;7.232;2023-08-06T10:23:03;16.90;14.70
20174;DHT22;10246;50.620;7.232;2023-08-06T10:25:32;16.80;14.70
20174;DHT22;10246;50.620;7.232;2023-08-06T10:28:00;16.80;15.50
20174;DHT22;10246;50.620;7.232;2023-08-06T10:30:28;16.70;15.40
20174;DHT22;10246;50.620;7.232;2023-08-06T10:33:00;16.50;16.60
20174;DHT22;10246;50.620;7.232;2023-08-06T10:35:31;16.50;16.60
20174;DHT22;10246;50.620;7.232;2023-08-06T10:37:59;16.50;14.60
20174;DHT22;10246;50.620;7.232;2023-08-06T10:40:27;16.40;14.60
20174;DHT22;10246;50.620;7.232;2023-08-06T10:42:58;16.40;12.70
20174;DHT22;10246;50.620;7.232;2023-08-06T10:45:25;16.20;13.80
20174;DHT22;10246;50.620;7.232;2023-08-06T10:47:54;16.10;13.40
20174;DHT22;10246;50.620;7.232;2023-08-06T10:50:22;16.00;16.20
20174;DHT22;10246;50.620;7.232;2023-08-06T10:52:49;16.10;18.40
20174;DHT22;10246;50.620;7.232;2023-08-06T10:55:22;16.20;15.60
20174;DHT22;10246;50.620;7.232;2023-08-06T10:57:49;16.20;15.50
20174;DHT22;10246;50.620;7.232;2023-08-06T11:00:17;16.20;12.50
20174;DHT22;10246;50.620;7.232;2023-08-06T11:02:47;16.20;14.30
20174;DHT22;10246;50.620;7.232;2023-08-06T11:05:18;16.20;13.00
20174;DHT22;10246;50.620;7.232;2023-08-06T11:07:45;16.20;11.30
20174;DHT22;10246;50.620;7.232;2023-08-06T11:10:13;16.00;11.70
20174;DHT22;10246;50.620;7.232;2023-08-06T11:12:40;16.00;11.50
20174;DHT22;10246;50.620;7.232;2023-08-06T11:15:07;16.00;14.00
20174;DHT22;10246;50.620;7.232;2023-08-06T11:17:36;16.00;13.00
20174;DHT22;10246;50.620;7.232;2023-08-06T11:20:04;16.10;14.10
20174;DHT22;10246;50.620;7.232;2023-08-06T11:22:32;16.10;12.30
20174;DHT22;10246;50.620;7.232;2023-08-06T11:25:00;16.10;12.90
20174;DHT22;10246;50.620;7.232;2023-08-06T11:27:27;16.20;12.90
20174;DHT22;10246;50.620;7.232;2023-08-06T11:29:55;16.30;13.40
20174;DHT22;10246;50.620;7.232;2023-08-06T11:32:21;16.30;13.00
20174;DHT22;10246;50.620;7.232;2023-08-06T11:34:52;16.30;13.70
20174;DHT22;10246;50.620;7.232;2023-08-06T11:37:21;16.30;11.00
20174;DHT22;10246;50.620;7.232;2023-08-06T11:39:51;16.10;13.00
20174;DHT22;10246;50.620;7.232;2023-08-06T11:42:18;16.10;14.50
20174;DHT22;10246;50.620;7.232;2023-08-06T11:44:45;16.10;13.30
20174;DHT22;10246;50.620;7.232;2023-08-06T11:47:14;16.20;15.10
20174;DHT22;10246;50.620;7.232;2023-08-06T11:49:42;16.20;15.00
20174;DHT22;10246;50.620;7.232;2023-08-06T11:52:15;16.20;14.40
20174;DHT22;10246;50.620;7.232;2023-08-06T11:54:44;16.20;15.20
20174;DHT22;10246;50.620;7.232;2023-08-06T11:57:11;16.20;16.40
20174;DHT22;10246;50.620;7.232;2023-08-06T11:59:38;16.20;15.40
20174;DHT22;10246;50.620;7.232;2023-08-06T12:02:08;16.30;16.40
20174;DHT22;10246;50.620;7.232;2023-08-06T12:05:00;16.40;15.00
20174;DHT22;10246;50.620;7.232;2023-08-06T12:07:30;16.40;16.50
20174;DHT22;10246;50.620;7.232;2023-08-06T12:09:59;16.40;16.50
20174;DHT22;10246;50.620;7.232;2023-08-06T12:12:27;16.40;16.10
20174;DHT22;10246;50.620;7.232;2023-08-06T12:14:54;16.30;16.40
20174;DHT22;10246;50.620;7.232;2023-08-06T12:17:21;16.30;16.50
20174;DHT22;10246;50.620;7.232;2023-08-06T12:19:48;16.30;16.50
20174;DHT22;10246;50.620;7.232;2023-08-06T12:22:15;16.40;16.50
20174;DHT22;10246;50.620;7.232;2023-08-06T12:24:44;16.30;16.40
20174;DHT22;10246;50.620;7.232;2023-08-06T12:27:11;16.30;16.10
20174;DHT22;10246;50.620;7.232;2023-08-06T12:29:41;16.20;15.40
20174;DHT22;10246;50.620;7.232;2023-08-06T12:32:08;16.10;16.70
20174;DHT22;10246;50.620;7.232;2023-08-06T12:34:35;16.10;16.90
20174;DHT22;10246;50.620;7.232;2023-08-06T12:37:02;16.10;17.60
20174;DHT22;10246;50.620;7.232;2023-08-06T12:39:29;16.20;18.40
20174;DHT22;10246;50.620;7.232;2023-08-06T12:41:58;16.10;17.50
20174;DHT22;10246;50.620;7.232;2023-08-06T12:44:25;16.10;17.10
20174;DHT22;10246;50.620;7.232;2023-08-06T12:46:52;16.00;18.30
20174;DHT22;10246;50.620;7.232;2023-08-06T12:49:19;16.00;19.10
20174;DHT22;10246;50.620;7.232;2023-08-06T12:51:47;16.00;20.20
20174;DHT22;10246;50.620;7.232;2023-08-06T12:54:14;16.10;20.10
20174;DHT22;10246;50.620;7.232;2023-08-06T12:56:41;16.20;18.40
20174;DHT22;10246;50.620;7.232;2023-08-06T12:59:09;16.30;18.40
20174;DHT22;10246;50.620;7.232;2023-08-06T13:01:37;16.20;17.50
20174;DHT22;10246;50.620;7.232;2023-08-06T13:04:04;16.20;18.30
20174;DHT22;10246;50.620;7.232;2023-08-06T13:06:31;16.20;19.40
20174;DHT22;10246;50.620;7.232;2023-08-06T13:09:01;16.20;18.20
20174;DHT22;10246;50.620;7.232;2023-08-06T13:11:28;16.20;18.20
20174;DHT22;10246;50.620;7.232;2023-08-06T13:13:56;16.20;18.50
20174;DHT22;10246;50.620;7.232;2023-08-06T13:16:24;16.20;18.90
20174;DHT22;10246;50.620;7.232;2023-08-06T13:18:51;16.30;18.20
20174;DHT22;10246;50.620;7.232;2023-08-06T13:21:18;16.30;18.90
20174;DHT22;10246;50.620;7.232;2023-08-06T13:23:45;16.20;18.00
20174;DHT22;10246;50.620;7.232;2023-08-06T13:26:13;16.30;18.60
20174;DHT22;10246;50.620;7.232;2023-08-06T13:28:41;16.30;19.80
20174;DHT22;10246;50.620;7.232;2023-08-06T13:31:08;16.30;19.20
20174;DHT22;10246;50.620;7.232;2023-08-06T13:33:36;16.30;19.90
20174;DHT22;10246;50.620;7.232;2023-08-06T13:36:03;16.40;20.40
20174;DHT22;10246;50.620;7.232;2023-08-06T13:38:30;16.30;18.60
20174;DHT22;10246;50.620;7.232;2023-08-06T13:40:57;16.30;18.90
20174;DHT22;10246;50.620;7.232;2023-08-06T13:43:24;16.30;17.50
20174;DHT22;10246;50.620;7.232;2023-08-06T13:45:51;16.30;16.50
20174;DHT22;10246;50.620;7.232;2023-08-06T13:48:18;16.30;18.30
20174;DHT22;10246;50.620;7.232;2023-08-06T13:50:48;16.30;17.50
20174;DHT22;10246;50.620;7.232;2023-08-06T13:53:15;16.30;16.40
20174;DHT22;10246;50.620;7.232;2023-08-06T13:55:43;16.20;16.40
20174;DHT22;10246;50.620;7.232;2023-08-06T13:58:11;16.20;16.90
20174;DHT22;10246;50.620;7.232;2023-08-06T14:00:37;16.20;16.50
20174;DHT22;10246;50.620;7.232;2023-08-06T14:03:04;16.20;17.30
20174;DHT22;10246;50.620;7.232;2023-08-06T14:05:36;16.20;18.60
20174;DHT22;10246;50.620;7.232;2023-08-06T14:08:10;16.20;17.60
20174;DHT22;10246;50.620;7.232;2023-08-06T14:10:40;16.30;18.60
20174;DHT22;10246;50.620;7.232;2023-08-06T14:13:07;16.30;16.40
20174;DHT22;10246;50.620;7.232;2023-08-06T14:15:34;16.40;16.90
20174;DHT22;10246;50.620;7.232;2023-08-06T14:18:00;16.40;16.50
20174;DHT22;10246;50.620;7.232;2023-08-06T14:20:27;16.50;16.10
20174;DHT22;10246;50.620;7.232;2023-08-06T14:22:54;16.50;15.80
20174;DHT22;10246;50.620;7.232;2023-08-06T14:25:24;16.50;13.80
20174;DHT22;10246;50.620;7.232;2023-08-06T14:27:50;16.40;15.70
20174;DHT22;10246;50.620;7.232;2023-08-06T14:30:17;16.40;16.50
20174;DHT22;10246;50.620;7.232;2023-08-06T14:32:44;16.40;16.50
20174;DHT22;10246;50.620;7.232;2023-08-06T14:35:18;16.50;16.40
20174;DHT22;10246;50.620;7.232;2023-08-06T14:37:45;16.50;16.60
20174;DHT22;10246;50.620;7.232;2023-08-06T14:40:12;16.50;16.30
20174;DHT22;10246;50.620;7.232;2023-08-06T14:42:40;16.40;16.50
20174;DHT22;10246;50.620;7.232;2023-08-06T14:45:07;16.40;16.50
20174;DHT22;10246;50.620;7.232;2023-08-06T14:47:34;16.50;17.90
20174;DHT22;10246;50.620;7.232;2023-08-06T14:50:05;16.50;18.80
20174;DHT22;10246;50.620;7.232;2023-08-06T14:52:33;16.70;16.70
20174;DHT22;10246;50.620;7.232;2023-08-06T14:55:00;16.70;16.10
20174;DHT22;10246;50.620;7.232;2023-08-06T14:57:29;16.70;17.40
20174;DHT22;10246;50.620;7.232;2023-08-06T14:59:58;16.70;16.80
20174;DHT22;10246;50.620;7.232;2023-08-06T15:02:26;16.80;15.00
20174;DHT22;10246;50.620;7.232;2023-08-06T15:04:54;16.80;15.40
20174;DHT22;10246;50.620;7.232;2023-08-06T15:07:24;16.70;14.60
20174;DHT22;10246;50.620;7.232;2023-08-06T15:09:52;16.80;14.60
20174;DHT22;10246;50.620;7.232;2023-08-06T15:12:24;16.70;16.10
20174;DHT22;10246;50.620;7.232;2023-08-06T15:15:10;16.80;16.80
20174;DHT22;10246;50.620;7.232;2023-08-06T15:17:46;16.70;13.80
20174;DHT22;10246;50.620;7.232;2023-08-06T15:20:20;16.80;15.20
20174;DHT22;10246;50.620;7.232;2023-08-06T15:22:49;16.80;14.10
20174;DHT22;10246;50.620;7.232;2023-08-06T15:25:22;16.90;14.70
20174;DHT22;10246;50.620;7.232;2023-08-06T15:27:55;16.90;14.50
20174;DHT22;10246;50.620;7.232;2023-08-06T15:30:25;16.90;12.60
20174;DHT22;10246;50.620;7.232;2023-08-06T15:32:59;16.70;13.40
20174;DHT22;10246;50.620;7.232;2023-08-06T15:35:27;16.70;14.20
20174;DHT22;10246;50.620;7.232;2023-08-06T15:37:56;16.70;13.70
20174;DHT22;10246;50.620;7.232;2023-08-06T15:40:24;16.70;12.50
20174;DHT22;10246;50.620;7.232;2023-08-06T15:42:52;16.60;13.30
20174;DHT22;10246;50.620;7.232;2023-08-06T15:45:20;16.70;13.80
20174;DHT22;10246;50.620;7.232;2023-08-06T15:47:54;16.70;13.90
20174;DHT22;10246;50.620;7.232;2023-08-06T15:50:22;16.80;13.00
20174;DHT22;10246;50.620;7.232;2023-08-06T15:52:50;16.70;13.10
20174;DHT22;10246;50.620;7.232;2023-08-06T15:55:31;16.60;15.20
20174;DHT22;10246;50.620;7.232;2023-08-06T15:58:03;16.60;15.10
20174;DHT22;10246;50.620;7.232;2023-08-06T16:00:33;16.60;15.60
20174;DHT22;10246;50.620;7.232;2023-08-06T16:03:04;16.60;15.10